sensor_id;sensor_type;location;lat;lon;timestamp;pressure;altitude;pressure_sealevel;temperature;humidity
78892;BME280;68368;51.728;5.248;2023-03-30T00:00:21;100649.73;;;13.03;66.30
78892;BME280;68368;51.728;5.248;2023-03-30T00:02:26;100665.24;;;13.02;66.32
78892;BME280;68368;51.728;5.248;2023-03-30T00:04:29;100660.60;;;13.03;66.16
78892;BME280;68368;51.728;5.248;2023-03-30T00:06:32;100654.22;;;13.01;66.25
78892;BME280;68368;51.728;5.248;2023-03-30T00:08:36;100653.30;;;13.03;65.90
78892;BME280;68368;51.728;5.248;2023-03-30T00:10:40;100654.30;;;13.05;65.81
78892;BME280;68368;51.728;5.248;2023-03-30T00:12:44;100654.25;;;13.08;65.19
78892;BME280;68368;51.728;5.248;2023-03-30T00:14:49;100649.88;;;13.12;65.29
78892;BME280;68368;51.728;5.248;2023-03-30T00:16:52;100650.50;;;13.16;65.14
78892;BME280;68368;51.728;5.248;2023-03-30T00:18:56;100641.67;;;13.19;64.74
78892;BME280;68368;51.728;5.248;2023-03-30T00:20:59;100650.85;;;13.23;64.75
78892;BME280;68368;51.728;5.248;2023-03-30T00:23:03;100652.77;;;13.26;64.80
78892;BME280;68368;51.728;5.248;2023-03-30T00:28:07;100651.45;;;13.30;64.45
78892;BME280;68368;51.728;5.248;2023-03-30T00:30:14;100655.15;;;13.31;64.44
78892;BME280;68368;51.728;5.248;2023-03-30T00:32:17;100651.21;;;13.31;64.51
78892;BME280;68368;51.728;5.248;2023-03-30T00:34:21;100648.54;;;13.31;64.44
78892;BME280;68368;51.728;5.248;2023-03-30T00:36:24;100641.36;;;13.33;64.39
78892;BME280;68368;51.728;5.248;2023-03-30T00:38:30;100637.77;;;13.34;63.87
78892;BME280;68368;51.728;5.248;2023-03-30T00:40:34;100629.86;;;13.37;63.82
78892;BME280;68368;51.728;5.248;2023-03-30T00:42:37;100620.75;;;13.38;63.70
78892;BME280;68368;51.728;5.248;2023-03-30T00:47:33;100598.16;;;13.43;62.99
78892;BME280;68368;51.728;5.248;2023-03-30T00:49:36;100595.08;;;13.45;62.81
78892;BME280;68368;51.728;5.248;2023-03-30T00:51:40;100605.20;;;13.46;62.74
78892;BME280;68368;51.728;5.248;2023-03-30T00:53:46;100602.98;;;13.50;62.77
78892;BME280;68368;51.728;5.248;2023-03-30T00:55:52;100593.34;;;13.50;62.49
78892;BME280;68368;51.728;5.248;2023-03-30T00:57:56;100594.52;;;13.52;62.53
78892;BME280;68368;51.728;5.248;2023-03-30T00:59:59;100594.52;;;13.52;62.52
78892;BME280;68368;51.728;5.248;2023-03-30T01:02:04;100598.30;;;13.51;62.66
78892;BME280;68368;51.728;5.248;2023-03-30T01:04:08;100602.10;;;13.49;62.24
78892;BME280;68368;51.728;5.248;2023-03-30T01:06:13;100605.52;;;13.48;62.27
78892;BME280;68368;51.728;5.248;2023-03-30T01:08:16;100606.95;;;13.48;62.33
78892;BME280;68368;51.728;5.248;2023-03-30T01:10:20;100607.70;;;13.47;62.04
78892;BME280;68368;51.728;5.248;2023-03-30T01:12:23;100607.69;;;13.47;62.32
78892;BME280;68368;51.728;5.248;2023-03-30T01:14:27;100609.66;;;13.47;62.20
78892;BME280;68368;51.728;5.248;2023-03-30T01:16:34;100611.77;;;13.48;62.21
78892;BME280;68368;51.728;5.248;2023-03-30T01:18:47;100601.56;;;13.49;62.21
78892;BME280;68368;51.728;5.248;2023-03-30T01:21:14;100590.99;;;13.51;62.30
78892;BME280;68368;51.728;5.248;2023-03-30T01:23:44;100591.71;;;13.51;62.27
78892;BME280;68368;51.728;5.248;2023-03-30T01:26:08;100597.91;;;13.52;61.93
78892;BME280;68368;51.728;5.248;2023-03-30T01:28:31;100610.02;;;13.53;62.24
78892;BME280;68368;51.728;5.248;2023-03-30T01:30:53;100611.29;;;13.52;61.95
78892;BME280;68368;51.728;5.248;2023-03-30T01:33:38;100604.65;;;13.53;61.99
78892;BME280;68368;51.728;5.248;2023-03-30T01:36:18;100591.68;;;13.52;62.14
78892;BME280;68368;51.728;5.248;2023-03-30T01:41:08;100582.57;;;13.46;62.43
78892;BME280;68368;51.728;5.248;2023-03-30T01:43:19;100568.11;;;13.47;62.68
78892;BME280;68368;51.728;5.248;2023-03-30T01:45:35;100564.55;;;13.47;62.40
78892;BME280;68368;51.728;5.248;2023-03-30T01:47:49;100560.84;;;13.45;62.86
78892;BME280;68368;51.728;5.248;2023-03-30T01:49:59;100554.64;;;13.44;62.78
78892;BME280;68368;51.728;5.248;2023-03-30T01:52:10;100558.63;;;13.41;62.99
78892;BME280;68368;51.728;5.248;2023-03-30T01:54:19;100560.63;;;13.40;63.19
78892;BME280;68368;51.728;5.248;2023-03-30T01:56:27;100560.36;;;13.36;63.35
78892;BME280;68368;51.728;5.248;2023-03-30T01:58:35;100569.67;;;13.34;63.41
78892;BME280;68368;51.728;5.248;2023-03-30T02:00:42;100582.55;;;13.33;63.81
78892;BME280;68368;51.728;5.248;2023-03-30T02:02:50;100576.84;;;13.33;63.92
78892;BME280;68368;51.728;5.248;2023-03-30T02:04:57;100572.15;;;13.28;63.98
78892;BME280;68368;51.728;5.248;2023-03-30T02:07:05;100566.84;;;13.26;64.07
78892;BME280;68368;51.728;5.248;2023-03-30T02:09:11;100582.73;;;13.24;64.03
78892;BME280;68368;51.728;5.248;2023-03-30T02:11:16;100584.70;;;13.24;64.32
78892;BME280;68368;51.728;5.248;2023-03-30T02:13:20;100585.80;;;13.23;64.56
78892;BME280;68368;51.728;5.248;2023-03-30T02:15:25;100588.34;;;13.21;64.68
78892;BME280;68368;51.728;5.248;2023-03-30T02:17:31;100586.67;;;13.16;64.81
78892;BME280;68368;51.728;5.248;2023-03-30T02:19:35;100590.45;;;13.15;65.08
78892;BME280;68368;51.728;5.248;2023-03-30T02:21:38;100578.00;;;13.14;65.09
78892;BME280;68368;51.728;5.248;2023-03-30T02:23:43;100582.61;;;13.14;65.22
78892;BME280;68368;51.728;5.248;2023-03-30T02:25:47;100587.08;;;13.14;65.50
78892;BME280;68368;51.728;5.248;2023-03-30T02:27:50;100590.13;;;13.14;65.43
78892;BME280;68368;51.728;5.248;2023-03-30T02:29:54;100586.55;;;13.13;65.71
78892;BME280;68368;51.728;5.248;2023-03-30T02:31:59;100581.06;;;13.13;65.54
78892;BME280;68368;51.728;5.248;2023-03-30T02:34:11;100581.04;;;13.13;65.90
78892;BME280;68368;51.728;5.248;2023-03-30T02:36:26;100584.77;;;13.14;66.08
78892;BME280;68368;51.728;5.248;2023-03-30T02:38:45;100579.59;;;13.15;65.82
78892;BME280;68368;51.728;5.248;2023-03-30T02:40:59;100582.80;;;13.22;66.12
78892;BME280;68368;51.728;5.248;2023-03-30T02:43:20;100586.67;;;13.24;65.96
78892;BME280;68368;51.728;5.248;2023-03-30T02:45:32;100590.56;;;13.25;65.84
78892;BME280;68368;51.728;5.248;2023-03-30T02:47:49;100593.16;;;13.28;66.01
78892;BME280;68368;51.728;5.248;2023-03-30T02:50:00;100586.39;;;13.29;66.19
78892;BME280;68368;51.728;5.248;2023-03-30T02:52:11;100585.36;;;13.27;66.28
78892;BME280;68368;51.728;5.248;2023-03-30T02:54:31;100585.73;;;13.26;66.64
78892;BME280;68368;51.728;5.248;2023-03-30T02:56:42;100588.05;;;13.26;66.65
78892;BME280;68368;51.728;5.248;2023-03-30T02:58:49;100588.27;;;13.24;66.74
78892;BME280;68368;51.728;5.248;2023-03-30T03:01:02;100591.56;;;13.20;66.80
78892;BME280;68368;51.728;5.248;2023-03-30T03:03:12;100585.02;;;13.19;67.37
78892;BME280;68368;51.728;5.248;2023-03-30T03:05:17;100582.63;;;13.21;67.48
78892;BME280;68368;51.728;5.248;2023-03-30T03:07:22;100586.64;;;13.26;68.00
78892;BME280;68368;51.728;5.248;2023-03-30T03:09:26;100592.51;;;13.26;67.98
78892;BME280;68368;51.728;5.248;2023-03-30T03:11:30;100591.02;;;13.21;68.96
78892;BME280;68368;51.728;5.248;2023-03-30T03:13:33;100583.45;;;13.17;69.45
78892;BME280;68368;51.728;5.248;2023-03-30T03:15:37;100573.52;;;13.14;69.93
78892;BME280;68368;51.728;5.248;2023-03-30T03:17:40;100559.20;;;13.10;70.43
78892;BME280;68368;51.728;5.248;2023-03-30T03:19:43;100554.91;;;13.04;70.66
78892;BME280;68368;51.728;5.248;2023-03-30T03:21:47;100551.52;;;12.97;70.90
78892;BME280;68368;51.728;5.248;2023-03-30T03:23:50;100547.77;;;12.90;71.30
78892;BME280;68368;51.728;5.248;2023-03-30T03:25:53;100552.73;;;12.83;71.23
78892;BME280;68368;51.728;5.248;2023-03-30T03:27:56;100557.50;;;12.77;71.63
78892;BME280;68368;51.728;5.248;2023-03-30T03:29:59;100553.84;;;12.74;71.45
78892;BME280;68368;51.728;5.248;2023-03-30T03:32:02;100550.47;;;12.73;71.88
78892;BME280;68368;51.728;5.248;2023-03-30T03:34:06;100545.69;;;12.72;71.76
78892;BME280;68368;51.728;5.248;2023-03-30T03:36:10;100552.34;;;12.70;71.56
78892;BME280;68368;51.728;5.248;2023-03-30T03:38:13;100549.17;;;12.68;71.73
78892;BME280;68368;51.728;5.248;2023-03-30T03:40:17;100553.45;;;12.68;71.78
78892;BME280;68368;51.728;5.248;2023-03-30T03:42:20;100545.28;;;12.67;71.90
78892;BME280;68368;51.728;5.248;2023-03-30T03:44:26;100547.84;;;12.64;71.68
78892;BME280;68368;51.728;5.248;2023-03-30T03:46:31;100543.56;;;12.64;71.63
78892;BME280;68368;51.728;5.248;2023-03-30T03:48:34;100538.38;;;12.65;71.57
78892;BME280;68368;51.728;5.248;2023-03-30T03:50:37;100535.38;;;12.64;71.75
78892;BME280;68368;51.728;5.248;2023-03-30T03:52:40;100535.95;;;12.62;71.62
78892;BME280;68368;51.728;5.248;2023-03-30T03:54:43;100535.09;;;12.61;71.51
78892;BME280;68368;51.728;5.248;2023-03-30T03:56:47;100530.86;;;12.59;71.73
78892;BME280;68368;51.728;5.248;2023-03-30T03:58:50;100545.44;;;12.60;71.67
78892;BME280;68368;51.728;5.248;2023-03-30T04:00:58;100543.66;;;12.60;71.40
78892;BME280;68368;51.728;5.248;2023-03-30T04:03:03;100542.60;;;12.59;71.58
78892;BME280;68368;51.728;5.248;2023-03-30T04:05:07;100539.04;;;12.60;71.79
78892;BME280;68368;51.728;5.248;2023-03-30T04:07:10;100537.20;;;12.62;71.43
78892;BME280;68368;51.728;5.248;2023-03-30T04:09:13;100538.60;;;12.63;71.33
78892;BME280;68368;51.728;5.248;2023-03-30T04:11:17;100541.22;;;12.66;71.07
78892;BME280;68368;51.728;5.248;2023-03-30T04:13:20;100541.68;;;12.68;70.77
78892;BME280;68368;51.728;5.248;2023-03-30T04:15:23;100539.17;;;12.69;70.45
78892;BME280;68368;51.728;5.248;2023-03-30T04:17:27;100543.90;;;12.73;70.26
78892;BME280;68368;51.728;5.248;2023-03-30T04:19:30;100541.37;;;12.75;70.30
78892;BME280;68368;51.728;5.248;2023-03-30T04:21:33;100535.66;;;12.75;70.25
78892;BME280;68368;51.728;5.248;2023-03-30T04:23:37;100537.21;;;12.76;70.49
78892;BME280;68368;51.728;5.248;2023-03-30T04:25:41;100533.08;;;12.78;70.57
78892;BME280;68368;51.728;5.248;2023-03-30T04:27:44;100527.88;;;12.79;70.60
78892;BME280;68368;51.728;5.248;2023-03-30T04:29:47;100538.21;;;12.79;70.43
78892;BME280;68368;51.728;5.248;2023-03-30T04:31:51;100530.83;;;12.76;70.66
78892;BME280;68368;51.728;5.248;2023-03-30T04:33:54;100528.98;;;12.71;71.93
78892;BME280;68368;51.728;5.248;2023-03-30T04:35:57;100540.40;;;12.63;72.49
78892;BME280;68368;51.728;5.248;2023-03-30T04:38:01;100540.65;;;12.52;72.88
78892;BME280;68368;51.728;5.248;2023-03-30T04:40:06;100536.20;;;12.43;73.40
78892;BME280;68368;51.728;5.248;2023-03-30T04:42:10;100537.86;;;12.33;73.59
78892;BME280;68368;51.728;5.248;2023-03-30T04:44:14;100531.80;;;12.17;73.95
78892;BME280;68368;51.728;5.248;2023-03-30T04:46:17;100545.91;;;12.15;74.42
78892;BME280;68368;51.728;5.248;2023-03-30T04:48:22;100536.48;;;12.07;74.81
78892;BME280;68368;51.728;5.248;2023-03-30T04:50:26;100541.90;;;12.02;75.00
78892;BME280;68368;51.728;5.248;2023-03-30T04:52:29;100538.96;;;11.98;75.33
78892;BME280;68368;51.728;5.248;2023-03-30T04:54:32;100545.25;;;11.95;75.41
78892;BME280;68368;51.728;5.248;2023-03-30T04:56:35;100545.66;;;11.93;75.43
78892;BME280;68368;51.728;5.248;2023-03-30T04:58:39;100552.10;;;11.91;75.61
78892;BME280;68368;51.728;5.248;2023-03-30T05:00:42;100547.14;;;11.90;76.55
78892;BME280;68368;51.728;5.248;2023-03-30T05:02:46;100554.60;;;11.90;76.41
78892;BME280;68368;51.728;5.248;2023-03-30T05:04:49;100556.36;;;11.91;76.55
78892;BME280;68368;51.728;5.248;2023-03-30T05:06:52;100559.40;;;11.91;76.69
78892;BME280;68368;51.728;5.248;2023-03-30T05:08:59;100562.09;;;11.89;76.69
78892;BME280;68368;51.728;5.248;2023-03-30T05:11:03;100557.86;;;11.88;76.79
78892;BME280;68368;51.728;5.248;2023-03-30T05:13:06;100560.70;;;11.88;76.88
78892;BME280;68368;51.728;5.248;2023-03-30T05:15:11;100556.58;;;11.89;77.10
78892;BME280;68368;51.728;5.248;2023-03-30T05:17:14;100552.14;;;11.89;77.16
78892;BME280;68368;51.728;5.248;2023-03-30T05:19:18;100548.61;;;11.88;77.15
78892;BME280;68368;51.728;5.248;2023-03-30T05:21:21;100556.63;;;11.86;77.31
78892;BME280;68368;51.728;5.248;2023-03-30T05:23:24;100550.41;;;11.85;77.58
78892;BME280;68368;51.728;5.248;2023-03-30T05:25:28;100550.42;;;11.85;77.41
78892;BME280;68368;51.728;5.248;2023-03-30T05:27:31;100550.08;;;11.83;77.42
78892;BME280;68368;51.728;5.248;2023-03-30T05:29:34;100545.30;;;11.82;77.47
78892;BME280;68368;51.728;5.248;2023-03-30T05:31:40;100548.13;;;11.83;77.47
78892;BME280;68368;51.728;5.248;2023-03-30T05:33:43;100555.09;;;11.82;77.73
78892;BME280;68368;51.728;5.248;2023-03-30T05:35:46;100550.99;;;11.82;77.58
78892;BME280;68368;51.728;5.248;2023-03-30T05:37:50;100552.03;;;11.83;77.67
78892;BME280;68368;51.728;5.248;2023-03-30T05:39:53;100550.96;;;11.83;77.65
78892;BME280;68368;51.728;5.248;2023-03-30T05:41:58;100558.08;;;11.83;77.50
78892;BME280;68368;51.728;5.248;2023-03-30T05:44:02;100555.23;;;11.83;77.36
78892;BME280;68368;51.728;5.248;2023-03-30T05:46:06;100561.28;;;11.85;77.99
78892;BME280;68368;51.728;5.248;2023-03-30T05:48:09;100564.29;;;11.86;78.07
78892;BME280;68368;51.728;5.248;2023-03-30T05:50:12;100557.13;;;11.89;77.80
78892;BME280;68368;51.728;5.248;2023-03-30T05:52:16;100559.43;;;11.89;77.83
78892;BME280;68368;51.728;5.248;2023-03-30T05:54:19;100563.86;;;11.90;77.99
78892;BME280;68368;51.728;5.248;2023-03-30T05:56:22;100560.27;;;11.91;77.86
78892;BME280;68368;51.728;5.248;2023-03-30T05:58:26;100565.42;;;11.91;77.79
78892;BME280;68368;51.728;5.248;2023-03-30T06:00:29;100557.38;;;11.94;77.41
78892;BME280;68368;51.728;5.248;2023-03-30T06:02:32;100557.72;;;11.94;77.36
78892;BME280;68368;51.728;5.248;2023-03-30T06:04:35;100562.34;;;11.94;77.62
78892;BME280;68368;51.728;5.248;2023-03-30T06:06:39;100565.02;;;11.94;77.27
78892;BME280;68368;51.728;5.248;2023-03-30T06:08:42;100563.74;;;11.95;77.20
78892;BME280;68368;51.728;5.248;2023-03-30T06:10:52;100569.05;;;11.97;77.18
78892;BME280;68368;51.728;5.248;2023-03-30T06:12:56;100567.44;;;11.98;76.95
78892;BME280;68368;51.728;5.248;2023-03-30T06:14:59;100576.69;;;11.97;77.03
78892;BME280;68368;51.728;5.248;2023-03-30T06:17:06;100572.63;;;11.96;76.97
78892;BME280;68368;51.728;5.248;2023-03-30T06:19:09;100572.66;;;11.94;76.99
78892;BME280;68368;51.728;5.248;2023-03-30T06:21:12;100578.21;;;11.92;77.05
78892;BME280;68368;51.728;5.248;2023-03-30T06:23:15;100580.52;;;11.93;77.07
78892;BME280;68368;51.728;5.248;2023-03-30T06:25:19;100581.75;;;11.93;76.85
78892;BME280;68368;51.728;5.248;2023-03-30T06:27:22;100581.58;;;11.93;77.18
78892;BME280;68368;51.728;5.248;2023-03-30T06:29:26;100581.96;;;11.92;77.36
78892;BME280;68368;51.728;5.248;2023-03-30T06:31:29;100588.20;;;11.91;77.12
78892;BME280;68368;51.728;5.248;2023-03-30T06:33:34;100592.31;;;11.91;76.91
78892;BME280;68368;51.728;5.248;2023-03-30T06:35:37;100596.75;;;11.91;76.96
78892;BME280;68368;51.728;5.248;2023-03-30T06:37:43;100599.91;;;11.92;76.88
78892;BME280;68368;51.728;5.248;2023-03-30T06:39:46;100601.47;;;11.95;76.42
78892;BME280;68368;51.728;5.248;2023-03-30T06:41:49;100599.77;;;12.00;76.61
78892;BME280;68368;51.728;5.248;2023-03-30T06:43:53;100594.72;;;12.03;76.13
78892;BME280;68368;51.728;5.248;2023-03-30T06:45:57;100591.33;;;12.05;75.99
78892;BME280;68368;51.728;5.248;2023-03-30T06:48:00;100598.91;;;12.07;75.80
78892;BME280;68368;51.728;5.248;2023-03-30T06:50:03;100595.31;;;12.09;75.79
78892;BME280;68368;51.728;5.248;2023-03-30T06:52:07;100593.51;;;12.11;75.63
78892;BME280;68368;51.728;5.248;2023-03-30T06:54:10;100603.61;;;12.12;75.10
78892;BME280;68368;51.728;5.248;2023-03-30T06:56:13;100600.02;;;12.14;75.16
78892;BME280;68368;51.728;5.248;2023-03-30T06:58:16;100610.16;;;12.14;74.88
78892;BME280;68368;51.728;5.248;2023-03-30T07:00:22;100609.57;;;12.17;74.34
78892;BME280;68368;51.728;5.248;2023-03-30T07:02:26;100616.11;;;12.18;73.99
78892;BME280;68368;51.728;5.248;2023-03-30T07:04:30;100614.52;;;12.19;74.05
78892;BME280;68368;51.728;5.248;2023-03-30T07:06:33;100620.56;;;12.19;73.76
78892;BME280;68368;51.728;5.248;2023-03-30T07:08:36;100613.89;;;12.23;73.43
78892;BME280;68368;51.728;5.248;2023-03-30T07:10:39;100618.41;;;12.28;73.17
78892;BME280;68368;51.728;5.248;2023-03-30T07:12:43;100619.76;;;12.32;73.18
78892;BME280;68368;51.728;5.248;2023-03-30T07:14:46;100621.82;;;12.35;72.99
78892;BME280;68368;51.728;5.248;2023-03-30T07:16:49;100622.80;;;12.40;73.25
78892;BME280;68368;51.728;5.248;2023-03-30T07:18:52;100626.89;;;12.49;72.81
78892;BME280;68368;51.728;5.248;2023-03-30T07:20:57;100617.88;;;12.54;72.04
78892;BME280;68368;51.728;5.248;2023-03-30T07:23:02;100624.34;;;12.60;71.83
78892;BME280;68368;51.728;5.248;2023-03-30T07:25:08;100627.23;;;12.66;71.52
78892;BME280;68368;51.728;5.248;2023-03-30T07:27:12;100628.41;;;12.68;70.81
78892;BME280;68368;51.728;5.248;2023-03-30T07:29:15;100634.09;;;12.70;70.81
78892;BME280;68368;51.728;5.248;2023-03-30T07:31:18;100634.05;;;12.71;70.77
78892;BME280;68368;51.728;5.248;2023-03-30T07:33:21;100637.30;;;12.69;70.71
78892;BME280;68368;51.728;5.248;2023-03-30T07:35:25;100640.90;;;12.67;70.51
78892;BME280;68368;51.728;5.248;2023-03-30T07:37:28;100641.55;;;12.62;70.68
78892;BME280;68368;51.728;5.248;2023-03-30T07:39:32;100643.04;;;12.59;70.70
78892;BME280;68368;51.728;5.248;2023-03-30T07:41:35;100638.84;;;12.56;70.55
78892;BME280;68368;51.728;5.248;2023-03-30T07:43:38;100642.37;;;12.57;70.72
78892;BME280;68368;51.728;5.248;2023-03-30T07:45:42;100643.56;;;12.60;70.41
78892;BME280;68368;51.728;5.248;2023-03-30T07:47:45;100646.17;;;12.62;70.13
78892;BME280;68368;51.728;5.248;2023-03-30T07:49:48;100646.59;;;12.59;69.65
78892;BME280;68368;51.728;5.248;2023-03-30T07:51:52;100649.38;;;12.54;69.82
78892;BME280;68368;51.728;5.248;2023-03-30T07:53:55;100652.64;;;12.52;70.12
78892;BME280;68368;51.728;5.248;2023-03-30T07:55:58;100655.63;;;12.53;69.94
78892;BME280;68368;51.728;5.248;2023-03-30T07:58:01;100659.03;;;12.53;69.94
78892;BME280;68368;51.728;5.248;2023-03-30T08:00:06;100667.39;;;12.53;69.55
78892;BME280;68368;51.728;5.248;2023-03-30T08:02:12;100666.21;;;12.58;69.58
78892;BME280;68368;51.728;5.248;2023-03-30T08:04:17;100666.68;;;12.61;69.34
78892;BME280;68368;51.728;5.248;2023-03-30T08:06:21;100669.48;;;12.63;69.21
78892;BME280;68368;51.728;5.248;2023-03-30T08:08:24;100669.77;;;12.67;69.15
78892;BME280;68368;51.728;5.248;2023-03-30T08:10:27;100668.27;;;12.71;68.92
78892;BME280;68368;51.728;5.248;2023-03-30T08:12:30;100672.86;;;12.72;68.93
78892;BME280;68368;51.728;5.248;2023-03-30T08:14:34;100673.69;;;12.75;69.11
78892;BME280;68368;51.728;5.248;2023-03-30T08:16:37;100674.85;;;12.79;68.37
78892;BME280;68368;51.728;5.248;2023-03-30T08:18:40;100674.77;;;12.82;67.75
78892;BME280;68368;51.728;5.248;2023-03-30T08:20:48;100681.86;;;12.84;67.43
78892;BME280;68368;51.728;5.248;2023-03-30T08:22:51;100678.75;;;12.87;67.78
78892;BME280;68368;51.728;5.248;2023-03-30T08:24:54;100685.83;;;12.90;67.73
78892;BME280;68368;51.728;5.248;2023-03-30T08:26:57;100690.19;;;12.94;67.52
78892;BME280;68368;51.728;5.248;2023-03-30T08:29:01;100692.33;;;12.94;68.02
78892;BME280;68368;51.728;5.248;2023-03-30T08:31:05;100694.77;;;12.97;68.17
78892;BME280;68368;51.728;5.248;2023-03-30T08:33:08;100694.56;;;12.98;68.01
78892;BME280;68368;51.728;5.248;2023-03-30T08:35:12;100696.42;;;13.03;67.64
78892;BME280;68368;51.728;5.248;2023-03-30T08:37:15;100694.71;;;13.07;67.50
78892;BME280;68368;51.728;5.248;2023-03-30T08:39:18;100696.65;;;13.09;67.27
78892;BME280;68368;51.728;5.248;2023-03-30T08:41:43;100688.93;;;13.10;66.97
78892;BME280;68368;51.728;5.248;2023-03-30T08:43:52;100691.35;;;13.14;66.94
78892;BME280;68368;51.728;5.248;2023-03-30T08:45:59;100685.29;;;13.14;66.99
78892;BME280;68368;51.728;5.248;2023-03-30T08:48:03;100690.81;;;13.13;67.37
78892;BME280;68368;51.728;5.248;2023-03-30T08:50:10;100688.87;;;13.13;67.35
78892;BME280;68368;51.728;5.248;2023-03-30T08:52:20;100694.33;;;13.09;67.11
78892;BME280;68368;51.728;5.248;2023-03-30T08:54:26;100697.25;;;13.05;66.64
78892;BME280;68368;51.728;5.248;2023-03-30T08:56:36;100694.80;;;13.03;66.67
78892;BME280;68368;51.728;5.248;2023-03-30T08:58:48;100701.00;;;13.05;67.04
78892;BME280;68368;51.728;5.248;2023-03-30T09:00:59;100696.68;;;13.07;66.69
78892;BME280;68368;51.728;5.248;2023-03-30T09:03:10;100700.67;;;13.12;66.89
78892;BME280;68368;51.728;5.248;2023-03-30T09:05:21;100704.14;;;13.25;67.11
78892;BME280;68368;51.728;5.248;2023-03-30T09:07:30;100709.28;;;13.26;66.67
78892;BME280;68368;51.728;5.248;2023-03-30T09:09:40;100707.86;;;13.25;66.75
78892;BME280;68368;51.728;5.248;2023-03-30T09:11:46;100711.52;;;13.20;65.84
78892;BME280;68368;51.728;5.248;2023-03-30T09:13:51;100707.74;;;13.14;65.76
78892;BME280;68368;51.728;5.248;2023-03-30T09:15:58;100707.36;;;13.07;66.11
78892;BME280;68368;51.728;5.248;2023-03-30T09:18:09;100713.36;;;13.02;65.68
78892;BME280;68368;51.728;5.248;2023-03-30T09:20:21;100718.73;;;13.01;65.22
78892;BME280;68368;51.728;5.248;2023-03-30T09:22:30;100713.90;;;13.02;65.00
78892;BME280;68368;51.728;5.248;2023-03-30T09:24:37;100723.04;;;12.99;65.22
78892;BME280;68368;51.728;5.248;2023-03-30T09:26:47;100721.12;;;12.98;65.20
78892;BME280;68368;51.728;5.248;2023-03-30T09:28:58;100723.00;;;13.02;65.08
78892;BME280;68368;51.728;5.248;2023-03-30T09:31:06;100728.02;;;13.08;65.09
78892;BME280;68368;51.728;5.248;2023-03-30T09:33:23;100721.73;;;13.10;65.40
78892;BME280;68368;51.728;5.248;2023-03-30T09:35:36;100731.23;;;13.17;64.80
78892;BME280;68368;51.728;5.248;2023-03-30T09:37:40;100731.60;;;13.23;64.18
78892;BME280;68368;51.728;5.248;2023-03-30T09:39:44;100740.30;;;13.25;64.02
78892;BME280;68368;51.728;5.248;2023-03-30T09:42:00;100739.21;;;13.26;63.96
78892;BME280;68368;51.728;5.248;2023-03-30T09:44:17;100737.61;;;13.27;63.85
78892;BME280;68368;51.728;5.248;2023-03-30T09:46:21;100743.36;;;13.32;63.85
78892;BME280;68368;51.728;5.248;2023-03-30T09:48:24;100733.95;;;13.39;63.41
78892;BME280;68368;51.728;5.248;2023-03-30T09:50:29;100739.19;;;13.51;63.54
78892;BME280;68368;51.728;5.248;2023-03-30T09:52:34;100746.15;;;13.58;63.19
78892;BME280;68368;51.728;5.248;2023-03-30T09:54:38;100747.33;;;13.69;62.85
78892;BME280;68368;51.728;5.248;2023-03-30T09:56:43;100741.60;;;13.84;62.42
78892;BME280;68368;51.728;5.248;2023-03-30T09:58:46;100747.58;;;13.94;62.17
78892;BME280;68368;51.728;5.248;2023-03-30T10:01:03;100742.83;;;14.05;62.31
78892;BME280;68368;51.728;5.248;2023-03-30T10:03:12;100747.17;;;14.17;62.29
78892;BME280;68368;51.728;5.248;2023-03-30T10:05:20;100745.67;;;14.20;61.66
78892;BME280;68368;51.728;5.248;2023-03-30T10:07:24;100745.12;;;14.20;61.26
78892;BME280;68368;51.728;5.248;2023-03-30T10:09:28;100749.30;;;14.17;61.40
78892;BME280;68368;51.728;5.248;2023-03-30T10:11:36;100752.02;;;14.22;61.80
78892;BME280;68368;51.728;5.248;2023-03-30T10:13:43;100759.46;;;14.32;62.20
78892;BME280;68368;51.728;5.248;2023-03-30T10:15:50;100748.72;;;14.39;61.61
78892;BME280;68368;51.728;5.248;2023-03-30T10:17:54;100761.63;;;14.37;60.69
78892;BME280;68368;51.728;5.248;2023-03-30T10:20:14;100756.97;;;14.31;60.89
78892;BME280;68368;51.728;5.248;2023-03-30T10:22:20;100756.59;;;14.25;61.59
78892;BME280;68368;51.728;5.248;2023-03-30T10:24:25;100755.73;;;14.24;60.81
78892;BME280;68368;51.728;5.248;2023-03-30T10:26:29;100759.80;;;14.19;60.91
78892;BME280;68368;51.728;5.248;2023-03-30T10:28:33;100762.21;;;14.21;61.07
78892;BME280;68368;51.728;5.248;2023-03-30T10:30:37;100766.20;;;14.33;61.09
78892;BME280;68368;51.728;5.248;2023-03-30T10:32:44;100761.35;;;14.41;60.82
78892;BME280;68368;51.728;5.248;2023-03-30T10:34:49;100769.48;;;14.65;59.87
78892;BME280;68368;51.728;5.248;2023-03-30T10:36:54;100768.02;;;14.85;59.93
78892;BME280;68368;51.728;5.248;2023-03-30T10:39:05;100768.67;;;14.93;60.09
78892;BME280;68368;51.728;5.248;2023-03-30T10:41:11;100769.44;;;14.91;59.17
78892;BME280;68368;51.728;5.248;2023-03-30T10:43:20;100771.23;;;14.73;59.01
78892;BME280;68368;51.728;5.248;2023-03-30T10:45:29;100763.75;;;14.52;59.40
78892;BME280;68368;51.728;5.248;2023-03-30T10:47:44;100777.10;;;14.40;60.19
78892;BME280;68368;51.728;5.248;2023-03-30T10:49:59;100768.67;;;14.41;60.28
78892;BME280;68368;51.728;5.248;2023-03-30T10:52:09;100774.81;;;14.45;60.07
78892;BME280;68368;51.728;5.248;2023-03-30T10:54:19;100774.35;;;14.43;59.80
78892;BME280;68368;51.728;5.248;2023-03-30T10:56:31;100774.31;;;14.37;59.76
78892;BME280;68368;51.728;5.248;2023-03-30T10:58:49;100773.40;;;14.38;59.88
78892;BME280;68368;51.728;5.248;2023-03-30T11:01:04;100776.58;;;14.54;60.43
78892;BME280;68368;51.728;5.248;2023-03-30T11:03:13;100772.02;;;14.50;60.34
78892;BME280;68368;51.728;5.248;2023-03-30T11:05:24;100774.61;;;14.39;60.44
78892;BME280;68368;51.728;5.248;2023-03-30T11:07:34;100764.84;;;14.31;60.66